createdAt,value
2022-12-27T00:01:22.116Z,97959.59
2022-12-27T00:03:49.242Z,97963.38
2022-12-27T00:06:17.660Z,97953.25
2022-12-27T00:08:44.425Z,97943.03
2022-12-27T00:11:12.254Z,97914.84
2022-12-27T00:13:38.811Z,97945.16
2022-12-27T00:16:09.878Z,97952.81
2022-12-27T00:18:37.007Z,97957.78
2022-12-27T00:21:04.387Z,97952.22
2022-12-27T00:23:32.058Z,97959.25
2022-12-27T00:26:05.976Z,97969.28
2022-12-27T00:28:33.156Z,97969.31
2022-12-27T00:30:59.868Z,97959.25
2022-12-27T00:33:27.144Z,97968.16
2022-12-27T00:35:53.616Z,97961.38
2022-12-27T00:38:20.472Z,97965.47
2022-12-27T00:40:47.962Z,97972.53
2022-12-27T00:43:14.434Z,97968.47
2022-12-27T00:45:40.953Z,97978.50
2022-12-27T00:48:07.436Z,97971.72
2022-12-27T00:50:33.913Z,97983.88
2022-12-27T00:53:00.416Z,97983.25
2022-12-27T00:55:27.356Z,97985.41
2022-12-27T00:57:54.647Z,97990.88
2022-12-27T01:00:21.168Z,97987.09
2022-12-27T01:02:47.657Z,97996.19
2022-12-27T01:05:14.140Z,97995.44
2022-12-27T01:07:40.837Z,97999.50
2022-12-27T01:10:07.499Z,97998.88
2022-12-27T01:12:34.838Z,97995.84
2022-12-27T01:15:01.300Z,98001.63
2022-12-27T01:17:28.965Z,98003.44
2022-12-27T01:19:55.439Z,97995.00
2022-12-27T01:22:21.938Z,97998.31
2022-12-27T01:24:48.811Z,98004.28
2022-12-27T01:27:15.274Z,97997.34
2022-12-27T01:29:41.743Z,97997.97
2022-12-27T01:32:08.645Z,98005.88
2022-12-27T01:34:35.136Z,97992.13
2022-12-27T01:37:01.552Z,98002.91
2022-12-27T01:39:28.067Z,98001.19
2022-12-27T01:42:13.387Z,97993.19
2022-12-27T01:44:52.080Z,97996.53
2022-12-27T01:47:28.578Z,97993.72
2022-12-27T01:49:55.021Z,97984.13
2022-12-27T01:52:23.437Z,97993.53
2022-12-27T01:54:50.626Z,97994.59
2022-12-27T01:57:17.121Z,98001.63
2022-12-27T01:59:43.643Z,98004.41
2022-12-27T02:02:10.174Z,98000.88
2022-12-27T02:04:36.747Z,98004.63
2022-12-27T02:07:05.106Z,98007.38
2022-12-27T02:09:50.017Z,98001.63
2022-12-27T02:12:18.059Z,98009.09
2022-12-27T02:14:49.216Z,98003.34
2022-12-27T02:17:17.485Z,97996.28
2022-12-27T02:19:53.063Z,98002.66
2022-12-27T02:23:05.172Z,98002.47
2022-12-27T02:25:50.502Z,98006.44
2022-12-27T02:28:19.741Z,98022.53
2022-12-27T02:30:48.562Z,98018.91
2022-12-27T02:33:19.288Z,98026.06
2022-12-27T02:35:53.875Z,98027.44
2022-12-27T02:38:20.404Z,98035.56
2022-12-27T02:41:05.812Z,98025.13
2022-12-27T02:43:51.602Z,98029.59
2022-12-27T02:46:40.985Z,98025.72
2022-12-27T02:50:01.868Z,98042.41
2022-12-27T02:53:04.199Z,98039.16
2022-12-27T02:55:30.798Z,98033.72
2022-12-27T02:58:09.466Z,98041.50
2022-12-27T03:01:03.649Z,98034.31
2022-12-27T03:03:30.129Z,98044.44
2022-12-27T03:06:34.101Z,98052.16
2022-12-27T03:09:39.360Z,98061.91
2022-12-27T03:12:28.336Z,98067.66
2022-12-27T03:15:18.048Z,98079.03
2022-12-27T03:17:49.325Z,98084.63
2022-12-27T03:20:36.637Z,98084.47
2022-12-27T03:23:22.530Z,98079.34
2022-12-27T03:25:50.358Z,98083.97
2022-12-27T03:28:38.835Z,98087.09
2022-12-27T03:31:33.183Z,98077.09
2022-12-27T03:34:23.581Z,98082.72
2022-12-27T03:37:09.467Z,98082.47
2022-12-27T03:39:40.467Z,98084.59
2022-12-27T03:42:29.230Z,98092.56
2022-12-27T03:44:55.885Z,98099.78
2022-12-27T03:47:34.334Z,98108.56
2022-12-27T03:50:09.493Z,98103.00
2022-12-27T03:52:39.300Z,98110.81
2022-12-27T03:55:06.071Z,98108.41
2022-12-27T03:57:32.559Z,98109.66
2022-12-27T03:59:58.991Z,98112.22
2022-12-27T04:02:25.641Z,98110.50
2022-12-27T04:04:52.299Z,98104.94
2022-12-27T04:07:18.753Z,98102.81
2022-12-27T04:10:03.912Z,98096.34
2022-12-27T04:12:49.046Z,98096.16
2022-12-27T04:15:34.280Z,98089.88
2022-12-27T04:18:19.437Z,98091.59
2022-12-27T04:21:04.348Z,98097.28
2022-12-27T04:23:49.647Z,98094.84
2022-12-27T04:26:34.723Z,98104.34
2022-12-27T04:29:19.986Z,98116.69
2022-12-27T04:32:05.095Z,98122.78
2022-12-27T04:34:43.917Z,98129.06
2022-12-27T04:37:12.058Z,98138.34
2022-12-27T04:39:38.483Z,98138.56
2022-12-27T04:42:23.564Z,98146.53
2022-12-27T04:45:14.888Z,98155.69
2022-12-27T04:48:00.640Z,98158.34
2022-12-27T04:50:47.453Z,98154.69
2022-12-27T04:53:34.276Z,98144.59
2022-12-27T04:56:01.133Z,98154.03
2022-12-27T04:58:27.799Z,98149.53
2022-12-27T05:01:14.566Z,98152.78
2022-12-27T05:03:41.518Z,98148.03
2022-12-27T05:06:08.068Z,98151.47
2022-12-27T05:08:54.766Z,98160.41
2022-12-27T05:11:47.238Z,98169.94
2022-12-27T05:14:15.547Z,98177.81
2022-12-27T05:16:42.999Z,98180.88
2022-12-27T05:19:10.701Z,98180.56
2022-12-27T05:22:01.119Z,98180.56
2022-12-27T05:24:46.412Z,98187.22
2022-12-27T05:27:12.891Z,98191.63
2022-12-27T05:29:39.323Z,98203.03
2022-12-27T05:32:10.974Z,98201.56
2022-12-27T05:34:39.471Z,98207.56
2022-12-27T05:37:05.884Z,98213.22
2022-12-27T05:39:32.315Z,98218.97
2022-12-27T05:41:58.755Z,98223.09
2022-12-27T05:44:25.201Z,98221.59
2022-12-27T05:46:53.465Z,98233.19
2022-12-27T05:49:19.937Z,98228.91
2022-12-27T05:51:46.422Z,98237.38
2022-12-27T05:54:12.870Z,98241.75
2022-12-27T05:56:39.321Z,98247.53
2022-12-27T05:59:08.152Z,98245.31
2022-12-27T06:01:34.971Z,98253.22
2022-12-27T06:04:01.525Z,98251.00
2022-12-27T06:06:28.810Z,98261.47
2022-12-27T06:08:55.431Z,98249.44
2022-12-27T06:11:21.933Z,98252.19
2022-12-27T06:13:50.904Z,98249.41
2022-12-27T06:16:17.819Z,98264.94
2022-12-27T06:18:44.369Z,98266.53
2022-12-27T06:21:13.056Z,98271.72
2022-12-27T06:23:40.086Z,98272.97
2022-12-27T06:26:07.984Z,98276.41
2022-12-27T06:28:35.012Z,98286.72
2022-12-27T06:31:01.669Z,98281.63
2022-12-27T06:33:28.217Z,98279.97
2022-12-27T06:35:55.187Z,98291.63
2022-12-27T06:38:21.828Z,98298.75
2022-12-27T06:40:48.323Z,98300.22
2022-12-27T06:43:14.831Z,98295.56
2022-12-27T06:45:41.270Z,98304.19
2022-12-27T06:48:08.003Z,98311.38
2022-12-27T06:50:34.415Z,98314.91
2022-12-27T06:53:00.816Z,98313.78
2022-12-27T06:55:27.300Z,98316.00
2022-12-27T06:57:53.847Z,98335.31
2022-12-27T07:00:20.755Z,98341.22
2022-12-27T07:02:47.896Z,98342.53
2022-12-27T07:05:14.565Z,98346.53
2022-12-27T07:07:41.015Z,98344.59
2022-12-27T07:10:07.767Z,98338.22
2022-12-27T07:12:36.856Z,98340.34
2022-12-27T07:15:04.647Z,98353.72
2022-12-27T07:17:32.002Z,98362.84
2022-12-27T07:19:58.510Z,98360.25
2022-12-27T07:22:24.966Z,98358.75
2022-12-27T07:24:51.452Z,98373.97
2022-12-27T07:27:17.882Z,98366.53
2022-12-27T07:29:45.917Z,98383.03
2022-12-27T07:32:12.787Z,98389.19
2022-12-27T07:34:39.215Z,98388.78
2022-12-27T07:37:05.741Z,98386.91
2022-12-27T07:39:32.174Z,98398.69
2022-12-27T07:42:01.942Z,98398.22
2022-12-27T07:44:37.111Z,98399.44
2022-12-27T07:47:03.781Z,98393.47
2022-12-27T07:49:30.246Z,98394.41
2022-12-27T07:51:56.822Z,98394.00
2022-12-27T07:54:23.278Z,98412.97
2022-12-27T07:56:49.791Z,98405.38
2022-12-27T07:59:17.575Z,98405.38
2022-12-27T08:02:02.933Z,98395.84
2022-12-27T08:04:29.996Z,98398.50
2022-12-27T08:07:07.950Z,98384.88
2022-12-27T08:09:36.732Z,98390.00
2022-12-27T08:12:04.632Z,98403.22
2022-12-27T08:14:31.152Z,98408.72
2022-12-27T08:17:05.794Z,98403.91
2022-12-27T08:19:32.350Z,98419.00
2022-12-27T08:21:58.787Z,98419.34
2022-12-27T08:24:25.273Z,98430.75
2022-12-27T08:26:51.769Z,98424.34
2022-12-27T08:29:18.337Z,98425.66
2022-12-27T08:31:44.816Z,98425.78
2022-12-27T08:34:11.274Z,98435.69
2022-12-27T08:36:54.601Z,98438.16
2022-12-27T08:39:22.291Z,98445.69
2022-12-27T08:41:48.796Z,98446.06
2022-12-27T08:44:15.232Z,98458.69
2022-12-27T08:46:41.737Z,98457.28
2022-12-27T08:49:08.250Z,98453.09
2022-12-27T08:51:40.711Z,98453.53
2022-12-27T08:54:07.834Z,98456.75
2022-12-27T08:56:34.320Z,98456.53
2022-12-27T08:59:00.817Z,98462.53
2022-12-27T09:01:27.441Z,98462.81
2022-12-27T09:03:54.200Z,98462.53
2022-12-27T09:06:22.078Z,98472.53
2022-12-27T09:08:49.605Z,98469.34
2022-12-27T09:11:19.082Z,98476.53
2022-12-27T09:13:46.007Z,98471.22
2022-12-27T09:16:17.135Z,98464.06
2022-12-27T09:18:43.936Z,98463.16
2022-12-27T09:21:12.017Z,98465.13
2022-12-27T09:23:38.901Z,98464.47
2022-12-27T09:26:06.264Z,98463.13
2022-12-27T09:28:32.736Z,98464.91
2022-12-27T09:30:59.331Z,98466.56
2022-12-27T09:33:25.757Z,98459.31
2022-12-27T09:35:52.551Z,98450.19
2022-12-27T09:38:18.983Z,98449.91
2022-12-27T09:40:55.981Z,98458.63
2022-12-27T09:43:27.657Z,98449.50
2022-12-27T09:45:56.647Z,98442.22
2022-12-27T09:48:33.284Z,98438.56
2022-12-27T09:51:06.431Z,98432.94
2022-12-27T09:53:39.381Z,98440.50
2022-12-27T09:56:06.447Z,98440.38
2022-12-27T09:58:49.413Z,98446.94
2022-12-27T10:01:19.977Z,98446.16
2022-12-27T10:03:46.568Z,98451.00
2022-12-27T10:06:13.012Z,98440.06
2022-12-27T10:08:47.841Z,98445.41
2022-12-27T10:11:40.487Z,98429.19
2022-12-27T10:14:07.049Z,98426.78
2022-12-27T10:16:48.698Z,98426.13
2022-12-27T10:19:27.468Z,98424.28
2022-12-27T10:21:58.751Z,98419.63
2022-12-27T10:24:45.496Z,98409.31
2022-12-27T10:27:14.305Z,98411.53
2022-12-27T10:29:41.114Z,98408.41
2022-12-27T10:32:09.355Z,98410.66
2022-12-27T10:34:35.901Z,98412.47
2022-12-27T10:37:02.453Z,98414.22
2022-12-27T10:39:30.205Z,98419.69
2022-12-27T10:42:03.539Z,98412.66
2022-12-27T10:44:30.151Z,98407.13
2022-12-27T10:46:57.081Z,98405.44
2022-12-27T10:49:25.452Z,98403.94
2022-12-27T10:51:53.313Z,98407.47
2022-12-27T10:54:22.141Z,98405.81
2022-12-27T10:56:48.593Z,98399.44
2022-12-27T10:59:16.981Z,98401.91
2022-12-27T11:01:44.414Z,98391.94
2022-12-27T11:04:23.918Z,98392.84
2022-12-27T11:07:01.796Z,98393.78
2022-12-27T11:09:37.654Z,98402.28
2022-12-27T11:12:19.441Z,98398.16
2022-12-27T11:15:03.078Z,98387.44
2022-12-27T11:17:35.375Z,98383.63
2022-12-27T11:20:06.280Z,98390.88
2022-12-27T11:22:32.828Z,98391.88
2022-12-27T11:25:00.188Z,98396.59
2022-12-27T11:27:27.769Z,98391.81
2022-12-27T11:29:56.014Z,98400.31
2022-12-27T11:32:23.368Z,98387.56
2022-12-27T11:34:52.151Z,98389.81
2022-12-27T11:37:20.666Z,98382.00
2022-12-27T11:39:49.291Z,98384.34
2022-12-27T11:42:39.930Z,98384.97
2022-12-27T11:45:15.094Z,98386.75
2022-12-27T11:48:01.841Z,98388.47
2022-12-27T11:50:28.984Z,98384.00
2022-12-27T11:53:18.707Z,98387.53
2022-12-27T11:56:03.740Z,98384.38
2022-12-27T11:58:54.863Z,98383.88
2022-12-27T12:01:28.323Z,98389.81
2022-12-27T12:04:20.993Z,98378.78
2022-12-27T12:07:06.188Z,98386.38
2022-12-27T12:09:54.860Z,98379.97
2022-12-27T12:12:27.038Z,98384.78
2022-12-27T12:15:05.188Z,98383.28
2022-12-27T12:17:46.950Z,98387.56
2022-12-27T12:20:31.853Z,98397.41
2022-12-27T12:23:01.366Z,98393.06
2022-12-27T12:25:43.224Z,98392.63
2022-12-27T12:28:47.202Z,98391.38
2022-12-27T12:31:24.858Z,98390.97
2022-12-27T12:33:58.963Z,98390.84
2022-12-27T12:36:25.444Z,98392.19
2022-12-27T12:39:15.734Z,98386.22
2022-12-27T12:42:11.630Z,98389.47
2022-12-27T12:44:41.727Z,98387.09
2022-12-27T12:47:20.896Z,98376.47
2022-12-27T12:49:47.344Z,98380.94
2022-12-27T12:52:32.062Z,98379.06
2022-12-27T12:54:58.509Z,98383.72
2022-12-27T12:57:51.234Z,98374.22
2022-12-27T13:00:20.969Z,98380.63
2022-12-27T13:02:53.915Z,98377.56
2022-12-27T13:05:40.887Z,98377.84
2022-12-27T13:08:19.483Z,98378.41
2022-12-27T13:11:03.552Z,98374.53
2022-12-27T13:13:30.240Z,98382.69
2022-12-27T13:16:02.615Z,98372.84
2022-12-27T13:18:42.012Z,98376.69
2022-12-27T13:21:17.609Z,98379.03
2022-12-27T13:23:44.044Z,98384.56
2022-12-27T13:26:30.019Z,98390.03
2022-12-27T13:28:59.901Z,98389.75
2022-12-27T13:31:39.990Z,98391.84
2022-12-27T13:34:16.808Z,98399.19
2022-12-27T13:36:43.319Z,98400.75
2022-12-27T13:39:31.891Z,98392.84
2022-12-27T13:42:17.195Z,98394.72
2022-12-27T13:45:01.905Z,98403.16
2022-12-27T13:47:45.940Z,98408.88
2022-12-27T13:50:18.524Z,98411.66
2022-12-27T13:52:48.056Z,98409.88
2022-12-27T13:55:23.632Z,98415.97
2022-12-27T13:57:55.874Z,98418.91
2022-12-27T14:00:23.392Z,98416.94
2022-12-27T14:03:08.694Z,98426.19
2022-12-27T14:05:48.797Z,98430.16
2022-12-27T14:08:31.167Z,98428.75
2022-12-27T14:11:01.068Z,98436.41
2022-12-27T14:13:39.220Z,98440.63
2022-12-27T14:16:05.706Z,98435.63
2022-12-27T14:18:55.386Z,98437.44
2022-12-27T14:21:34.203Z,98447.31
2022-12-27T14:24:16.039Z,98444.25
2022-12-27T14:26:51.624Z,98452.81
2022-12-27T14:29:18.069Z,98458.00
2022-12-27T14:31:47.539Z,98471.09
2022-12-27T14:34:29.507Z,98468.00
2022-12-27T14:37:01.751Z,98472.56
2022-12-27T14:39:47.020Z,98479.28
2022-12-27T14:42:19.520Z,98498.25
2022-12-27T14:45:04.529Z,98498.34
2022-12-27T14:47:49.569Z,98495.31
2022-12-27T14:50:22.481Z,98510.66
2022-12-27T14:53:07.667Z,98521.16
2022-12-27T14:55:34.333Z,98523.97
2022-12-27T14:58:06.938Z,98527.19
2022-12-27T15:00:52.385Z,98524.81
2022-12-27T15:03:20.142Z,98525.59
2022-12-27T15:05:56.550Z,98530.25
2022-12-27T15:08:41.817Z,98539.47
2022-12-27T15:11:20.573Z,98541.34
2022-12-27T15:13:47.082Z,98552.38
2022-12-27T15:16:30.741Z,98564.63
2022-12-27T15:19:07.937Z,98557.66
2022-12-27T15:21:41.926Z,98568.06
2022-12-27T15:24:11.627Z,98574.16
2022-12-27T15:26:57.001Z,98587.84
2022-12-27T15:29:49.937Z,98590.75
2022-12-27T15:32:16.507Z,98588.00
2022-12-27T15:35:06.439Z,98591.63
2022-12-27T15:37:47.925Z,98592.41
2022-12-27T15:40:26.844Z,98587.94
2022-12-27T15:43:08.757Z,98600.25
2022-12-27T15:45:38.217Z,98605.28
2022-12-27T15:48:23.439Z,98610.44
2022-12-27T15:51:05.580Z,98604.31
2022-12-27T15:53:38.175Z,98612.78
2022-12-27T15:56:27.635Z,98617.56
2022-12-27T15:59:12.914Z,98624.97
2022-12-27T16:01:39.531Z,98635.34
2022-12-27T16:04:24.881Z,98630.75
2022-12-27T16:06:51.991Z,98626.09
2022-12-27T16:09:18.558Z,98635.09
2022-12-27T16:12:03.821Z,98634.03
2022-12-27T16:14:32.379Z,98636.97
2022-12-27T16:17:06.907Z,98639.78
2022-12-27T16:19:38.621Z,98644.78
2022-12-27T16:22:18.746Z,98654.91
2022-12-27T16:24:45.278Z,98653.66
2022-12-27T16:27:21.235Z,98666.75
2022-12-27T16:29:47.803Z,98664.22
2022-12-27T16:32:22.273Z,98667.88
2022-12-27T16:34:51.573Z,98667.03
2022-12-27T16:37:29.290Z,98662.00
2022-12-27T16:40:11.037Z,98671.19
2022-12-27T16:42:56.130Z,98666.94
2022-12-27T16:45:37.624Z,98672.81
2022-12-27T16:48:07.400Z,98661.56
2022-12-27T16:50:40.951Z,98661.75
2022-12-27T16:53:12.774Z,98664.44
2022-12-27T16:55:40.658Z,98670.97
2022-12-27T16:58:22.155Z,98669.56
2022-12-27T17:00:49.894Z,98665.47
2022-12-27T17:03:22.399Z,98681.00
2022-12-27T17:06:21.449Z,98678.56
2022-12-27T17:08:36.507Z,98669.31
2022-12-27T17:11:04.564Z,98676.13
2022-12-27T17:13:37.338Z,98679.53
2022-12-27T17:16:19.901Z,98690.84
2022-12-27T17:18:46.517Z,98688.50
2022-12-27T17:21:14.860Z,98693.69
2022-12-27T17:23:43.652Z,98695.25
2022-12-27T17:26:17.052Z,98698.16
2022-12-27T17:28:54.860Z,98691.38
2022-12-27T17:31:21.335Z,98706.56
2022-12-27T17:33:57.180Z,98702.19
2022-12-27T17:36:29.869Z,98707.13
2022-12-27T17:39:15.071Z,98706.19
2022-12-27T17:42:18.859Z,98709.44
2022-12-27T17:44:54.340Z,98710.09
2022-12-27T17:47:34.538Z,98717.72
2022-12-27T17:50:02.646Z,98720.34
2022-12-27T17:52:47.783Z,98717.38
2022-12-27T17:55:43.634Z,98714.59
2022-12-27T17:58:12.105Z,98728.78
2022-12-27T18:00:51.872Z,98730.69
2022-12-27T18:03:18.390Z,98737.94
2022-12-27T18:05:45.513Z,98741.06
2022-12-27T18:08:29.596Z,98748.13
2022-12-27T18:10:56.842Z,98745.69
2022-12-27T18:13:25.432Z,98753.81
2022-12-27T18:15:52.559Z,98761.75
2022-12-27T18:18:22.103Z,98771.22
2022-12-27T18:20:53.986Z,98766.91
2022-12-27T18:23:20.409Z,98771.22
2022-12-27T18:25:46.824Z,98776.44
2022-12-27T18:28:16.326Z,98782.19
2022-12-27T18:30:46.575Z,98771.81
2022-12-27T18:33:13.963Z,98773.53
2022-12-27T18:35:44.264Z,98771.53
2022-12-27T18:38:15.412Z,98780.34
2022-12-27T18:40:41.931Z,98782.19
2022-12-27T18:43:15.259Z,98779.19
2022-12-27T18:45:41.772Z,98785.63
2022-12-27T18:48:12.016Z,98780.81
2022-12-27T18:50:39.171Z,98776.50
2022-12-27T18:53:23.523Z,98783.19
2022-12-27T18:56:16.439Z,98793.72
2022-12-27T18:58:59.402Z,98789.94
2022-12-27T19:01:35.737Z,98797.69
2022-12-27T19:04:17.394Z,98793.22
2022-12-27T19:06:52.803Z,98792.78
2022-12-27T19:09:20.645Z,98781.25
2022-12-27T19:11:58.794Z,98796.19
2022-12-27T19:14:26.220Z,98791.53
2022-12-27T19:16:59.411Z,98797.72
2022-12-27T19:19:29.945Z,98802.03
2022-12-27T19:21:57.411Z,98796.19
2022-12-27T19:24:23.828Z,98794.50
2022-12-27T19:26:51.127Z,98794.97
2022-12-27T19:29:18.947Z,98795.31
2022-12-27T19:31:52.689Z,98804.84
2022-12-27T19:34:20.078Z,98799.59
2022-12-27T19:36:47.487Z,98802.13
2022-12-27T19:39:22.405Z,98805.31
2022-12-27T19:41:49.238Z,98801.84
2022-12-27T19:44:16.082Z,98797.06
2022-12-27T19:46:42.645Z,98800.88
2022-12-27T19:49:40.834Z,98799.66
2022-12-27T19:51:56.673Z,98802.34
2022-12-27T19:54:24.832Z,98800.47
2022-12-27T19:56:51.278Z,98797.34
2022-12-27T19:59:22.402Z,98807.34
2022-12-27T20:01:49.206Z,98801.72
2022-12-27T20:04:16.677Z,98798.28
2022-12-27T20:06:44.095Z,98796.25
2022-12-27T20:09:15.649Z,98793.41
2022-12-27T20:11:42.165Z,98793.81
2022-12-27T20:14:08.931Z,98795.44
2022-12-27T20:16:35.847Z,98795.13
2022-12-27T20:19:02.867Z,98796.00
2022-12-27T20:21:29.430Z,98787.94
2022-12-27T20:23:55.964Z,98789.53
2022-12-27T20:26:24.190Z,98789.50
2022-12-27T20:28:51.270Z,98802.22
2022-12-27T20:31:19.259Z,98802.53
2022-12-27T20:33:49.947Z,98792.97
2022-12-27T20:36:16.395Z,98788.25
2022-12-27T20:38:42.806Z,98790.13
2022-12-27T20:41:11.333Z,98789.22
2022-12-27T20:43:38.007Z,98783.91
2022-12-27T20:46:08.870Z,98783.88
2022-12-27T20:48:38.995Z,98780.34
2022-12-27T20:51:07.289Z,98777.94
2022-12-27T20:53:33.734Z,98789.03
2022-12-27T20:56:01.049Z,98792.97
2022-12-27T20:58:27.750Z,98790.19
2022-12-27T21:00:54.245Z,98784.66
2022-12-27T21:03:20.982Z,98790.75
2022-12-27T21:05:47.550Z,98787.72
2022-12-27T21:08:14.059Z,98796.09
2022-12-27T21:10:40.516Z,98794.53
2022-12-27T21:13:07.719Z,98780.13
2022-12-27T21:15:40.431Z,98781.69
2022-12-27T21:18:08.886Z,98806.19
2022-12-27T21:20:35.318Z,98790.00
2022-12-27T21:23:01.848Z,98786.03
2022-12-27T21:25:28.548Z,98786.25
2022-12-27T21:27:54.966Z,98787.94
2022-12-27T21:30:21.447Z,98794.53
2022-12-27T21:32:47.913Z,98787.34
2022-12-27T21:35:14.450Z,98769.75
2022-12-27T21:37:40.984Z,98787.19
2022-12-27T21:40:07.657Z,98790.16
2022-12-27T21:42:34.132Z,98785.94
2022-12-27T21:45:00.615Z,98784.66
2022-12-27T21:47:29.188Z,98788.25
2022-12-27T21:49:55.956Z,98785.84
2022-12-27T21:52:22.561Z,98796.09
2022-12-27T21:54:49.031Z,98799.94
2022-12-27T21:57:15.487Z,98798.59
2022-12-27T21:59:41.970Z,98794.94
2022-12-27T22:02:08.830Z,98794.31
2022-12-27T22:04:35.379Z,98790.47
2022-12-27T22:07:01.843Z,98781.53
2022-12-27T22:09:28.287Z,98795.00
2022-12-27T22:11:54.756Z,98788.25
2022-12-27T22:14:25.400Z,98783.44
2022-12-27T22:16:52.618Z,98784.91
2022-12-27T22:19:19.187Z,98783.75
2022-12-27T22:21:45.694Z,98787.16
2022-12-27T22:24:13.107Z,98781.22
2022-12-27T22:26:39.673Z,98781.22
2022-12-27T22:29:07.665Z,98780.38
2022-12-27T22:31:38.031Z,98777.72
2022-12-27T22:34:05.495Z,98776.53
2022-12-27T22:36:32.422Z,98780.28
2022-12-27T22:38:59.423Z,98772.56
2022-12-27T22:41:30.473Z,98772.78
2022-12-27T22:43:58.147Z,98772.16
2022-12-27T22:46:25.112Z,98768.09
2022-12-27T22:48:56.016Z,98765.97
2022-12-27T22:51:24.001Z,98780.34
2022-12-27T22:53:50.995Z,98772.00
2022-12-27T22:56:19.641Z,98765.75
2022-12-27T22:58:46.435Z,98770.28
2022-12-27T23:01:20.598Z,98764.31
2022-12-27T23:03:47.802Z,98764.00
2022-12-27T23:06:14.606Z,98769.34
2022-12-27T23:08:42.190Z,98765.25
2022-12-27T23:11:16.260Z,98759.63
2022-12-27T23:13:42.783Z,98756.31
2022-12-27T23:16:09.440Z,98763.25
2022-12-27T23:18:42.171Z,98751.19
2022-12-27T23:21:20.948Z,98751.63
2022-12-27T23:23:50.808Z,98745.69
2022-12-27T23:26:18.402Z,98744.44
2022-12-27T23:28:45.598Z,98746.94
2022-12-27T23:31:12.574Z,98744.91
2022-12-27T23:33:39.794Z,98740.84
2022-12-27T23:36:06.677Z,98745.19
2022-12-27T23:38:34.784Z,98735.66
2022-12-27T23:41:02.984Z,98742.84
2022-12-27T23:46:18.008Z,98724.88
2022-12-27T23:48:44.493Z,98728.59
2022-12-27T23:51:11.468Z,98732.19
2022-12-27T23:53:38.326Z,98728.13
2022-12-27T23:56:09.913Z,98712.63
2022-12-27T23:58:36.492Z,98714.56
